createdAt,value
2022-11-24T00:00:26.898Z,5.90
2022-11-24T00:03:12.379Z,6.10
2022-11-24T00:06:03.671Z,6.10
2022-11-24T00:08:49.337Z,6.20
2022-11-24T00:11:36.470Z,6.40
2022-11-24T00:14:21.867Z,6.20
2022-11-24T00:17:07.208Z,6.20
2022-11-24T00:19:52.862Z,6.10
2022-11-24T00:22:38.013Z,6.30
2022-11-24T00:25:23.362Z,6.20
2022-11-24T00:28:08.834Z,6.00
2022-11-24T00:30:54.288Z,6.00
2022-11-24T00:33:40.114Z,5.80
2022-11-24T00:36:27.820Z,5.70
2022-11-24T00:39:15.502Z,5.50
2022-11-24T00:42:00.848Z,5.30
2022-11-24T00:44:46.193Z,5.40
2022-11-24T00:47:32.974Z,5.40
2022-11-24T00:50:19.201Z,5.30
2022-11-24T00:53:04.757Z,5.40
2022-11-24T00:55:50.973Z,5.50
2022-11-24T00:58:36.645Z,5.40
2022-11-24T01:01:25.120Z,5.30
2022-11-24T01:04:10.439Z,5.20
2022-11-24T01:06:56.017Z,5.00
2022-11-24T01:09:43.252Z,4.90
2022-11-24T01:12:28.988Z,4.90
2022-11-24T01:15:14.525Z,5.00
2022-11-24T01:18:00.133Z,5.10
2022-11-24T01:20:45.777Z,5.20
2022-11-24T01:23:31.910Z,5.00
2022-11-24T01:26:19.849Z,4.90
2022-11-24T01:29:05.890Z,4.90
2022-11-24T01:31:51.541Z,5.00
2022-11-24T01:34:37.208Z,5.00
2022-11-24T01:37:22.946Z,5.00
2022-11-24T01:40:09.173Z,5.00
2022-11-24T01:42:55.031Z,5.10
2022-11-24T01:45:41.290Z,5.00
2022-11-24T01:48:38.268Z,5.00
2022-11-24T01:51:26.961Z,5.00
2022-11-24T01:54:17.504Z,5.00
2022-11-24T01:57:13.375Z,5.00
2022-11-24T02:00:05.128Z,5.00
2022-11-24T02:02:51.031Z,5.00
2022-11-24T02:05:41.953Z,5.00
2022-11-24T02:08:47.790Z,5.00
2022-11-24T02:11:37.544Z,5.10
2022-11-24T02:14:24.984Z,5.20
2022-11-24T02:17:10.913Z,5.10
2022-11-24T02:19:59.458Z,5.10
2022-11-24T02:23:01.632Z,5.10
2022-11-24T02:25:47.052Z,5.00
2022-11-24T02:28:33.170Z,5.00
2022-11-24T02:31:19.021Z,4.90
2022-11-24T02:34:04.380Z,4.90
2022-11-24T02:36:49.750Z,4.90
2022-11-24T02:39:35.747Z,4.90
2022-11-24T02:42:21.548Z,4.90
2022-11-24T02:45:09.826Z,4.80
2022-11-24T02:47:55.684Z,4.70
2022-11-24T02:50:41.174Z,4.70
2022-11-24T02:53:26.533Z,4.80
2022-11-24T02:56:11.994Z,4.90
2022-11-24T02:58:57.308Z,5.00
2022-11-24T03:01:42.972Z,5.00
2022-11-24T03:04:28.410Z,5.00
2022-11-24T03:07:14.721Z,5.00
2022-11-24T03:10:00.683Z,5.00
2022-11-24T03:12:46.538Z,5.10
2022-11-24T03:15:31.948Z,5.20
2022-11-24T03:18:17.653Z,5.20
2022-11-24T03:21:03.031Z,5.20
2022-11-24T03:23:48.537Z,5.30
2022-11-24T03:26:34.928Z,5.30
2022-11-24T03:29:20.581Z,5.30
2022-11-24T03:32:06.258Z,5.30
2022-11-24T03:34:51.740Z,5.30
2022-11-24T03:37:37.360Z,5.30
2022-11-24T03:40:22.807Z,5.30
2022-11-24T03:43:08.231Z,5.20
2022-11-24T03:45:53.778Z,5.30
2022-11-24T03:48:40.174Z,5.30
2022-11-24T03:51:25.599Z,5.30
2022-11-24T03:54:11.653Z,5.30
2022-11-24T03:56:57.303Z,5.30
2022-11-24T03:59:42.819Z,5.20
2022-11-24T04:02:28.271Z,5.10
2022-11-24T04:05:13.784Z,5.10
2022-11-24T04:08:02.976Z,5.20
2022-11-24T04:10:53.843Z,5.30
2022-11-24T04:13:39.529Z,5.30
2022-11-24T04:16:25.181Z,5.30
2022-11-24T04:19:10.459Z,5.40
2022-11-24T04:21:56.482Z,5.50
2022-11-24T04:24:42.675Z,5.50
2022-11-24T04:27:29.020Z,5.40
2022-11-24T04:30:15.747Z,5.50
2022-11-24T04:33:02.056Z,5.40
2022-11-24T04:35:47.844Z,5.30
2022-11-24T04:39:24.845Z,5.20
2022-11-24T04:41:38.875Z,5.20
2022-11-24T04:44:24.591Z,5.10
2022-11-24T04:47:17.166Z,5.10
2022-11-24T04:50:04.612Z,4.90
2022-11-24T04:52:50.383Z,4.90
2022-11-24T04:55:39.072Z,5.00
2022-11-24T04:58:24.653Z,5.00
2022-11-24T05:01:09.994Z,5.00
2022-11-24T05:03:56.850Z,5.00
2022-11-24T05:06:42.732Z,4.80
2022-11-24T05:09:41.994Z,4.60
2022-11-24T05:12:33.702Z,4.60
2022-11-24T05:15:19.227Z,4.60
2022-11-24T05:18:07.038Z,4.60
2022-11-24T05:20:52.678Z,4.70
2022-11-24T05:23:38.125Z,4.60
2022-11-24T05:26:23.609Z,4.60
2022-11-24T05:29:09.396Z,4.50
2022-11-24T05:31:55.036Z,4.50
2022-11-24T05:34:40.561Z,4.60
2022-11-24T05:37:27.943Z,4.60
2022-11-24T05:40:14.003Z,4.60
2022-11-24T05:42:59.635Z,4.70
2022-11-24T05:45:45.303Z,4.70
2022-11-24T05:48:31.017Z,4.80
2022-11-24T05:51:16.420Z,4.80
2022-11-24T05:54:02.132Z,4.90
2022-11-24T05:56:47.754Z,4.90
2022-11-24T05:59:33.245Z,5.10
2022-11-24T06:02:19.173Z,5.20
2022-11-24T06:05:05.335Z,5.30
2022-11-24T06:07:50.948Z,5.40
2022-11-24T06:10:36.665Z,5.50
2022-11-24T06:13:22.190Z,5.50
2022-11-24T06:16:08.283Z,5.50
2022-11-24T06:18:53.772Z,5.70
2022-11-24T06:21:39.241Z,5.80
2022-11-24T06:24:24.543Z,5.90
2022-11-24T06:27:09.878Z,6.10
2022-11-24T06:29:55.220Z,6.20
2022-11-24T06:32:49.149Z,6.20
2022-11-24T06:35:35.644Z,6.20
2022-11-24T06:38:24.308Z,6.30
2022-11-24T06:41:15.461Z,6.30
2022-11-24T06:44:04.023Z,6.30
2022-11-24T06:46:49.802Z,6.20
2022-11-24T06:49:35.427Z,6.10
2022-11-24T06:52:20.867Z,6.20
2022-11-24T06:55:07.227Z,6.20
2022-11-24T06:57:52.587Z,6.30
2022-11-24T07:00:39.145Z,6.40
2022-11-24T07:03:24.646Z,6.60
2022-11-24T07:06:10.623Z,6.70
2022-11-24T07:08:56.419Z,6.70
2022-11-24T07:11:42.664Z,6.90
2022-11-24T07:14:28.018Z,6.90
2022-11-24T07:17:13.766Z,6.90
2022-11-24T07:19:59.316Z,7.00
2022-11-24T07:22:44.777Z,7.10
2022-11-24T07:25:30.343Z,7.10
2022-11-24T07:28:15.936Z,7.20
2022-11-24T07:31:07.039Z,7.20
2022-11-24T07:33:54.458Z,7.30
2022-11-24T07:36:39.784Z,7.20
2022-11-24T07:39:25.997Z,7.30
2022-11-24T07:42:11.497Z,7.30
2022-11-24T07:44:57.411Z,7.40
2022-11-24T07:47:42.948Z,7.40
2022-11-24T07:50:28.141Z,7.40
2022-11-24T07:53:13.638Z,7.40
2022-11-24T07:56:01.005Z,7.30
2022-11-24T07:58:51.351Z,7.20
2022-11-24T08:01:38.864Z,7.20
2022-11-24T08:04:24.411Z,7.20
2022-11-24T08:07:10.195Z,7.20
2022-11-24T08:09:56.295Z,7.00
2022-11-24T08:12:43.832Z,7.00
2022-11-24T08:15:30.583Z,7.10
2022-11-24T08:18:16.927Z,7.10
2022-11-24T08:21:03.242Z,7.10
2022-11-24T08:23:49.118Z,7.10
2022-11-24T08:26:34.609Z,7.10
2022-11-24T08:29:19.995Z,7.10
2022-11-24T08:32:06.171Z,7.10
2022-11-24T08:34:52.174Z,7.10
2022-11-24T08:37:42.136Z,7.20
2022-11-24T08:40:27.536Z,7.20
2022-11-24T08:43:16.339Z,7.20
2022-11-24T08:46:04.879Z,7.30
2022-11-24T08:48:53.983Z,7.20
2022-11-24T08:51:39.617Z,7.30
2022-11-24T08:54:25.970Z,7.30
2022-11-24T08:57:18.723Z,7.20
2022-11-24T09:00:07.884Z,7.30
2022-11-24T09:02:58.456Z,7.40
2022-11-24T09:05:51.602Z,7.50
2022-11-24T09:08:38.822Z,7.60
2022-11-24T09:11:25.865Z,7.70
2022-11-24T09:14:11.217Z,7.80
2022-11-24T09:16:56.624Z,7.80
2022-11-24T09:19:42.218Z,7.90
2022-11-24T09:22:27.745Z,7.90
2022-11-24T09:25:13.602Z,8.00
2022-11-24T09:28:00.045Z,8.10
2022-11-24T09:30:45.374Z,8.20
2022-11-24T09:33:34.524Z,8.50
2022-11-24T09:36:20.432Z,8.60
2022-11-24T09:39:06.779Z,8.70
2022-11-24T09:42:04.357Z,8.80
2022-11-24T09:46:03.359Z,8.80
2022-11-24T09:48:42.702Z,8.80
2022-11-24T09:51:31.769Z,8.80
2022-11-24T09:54:22.601Z,8.90
2022-11-24T09:57:13.738Z,8.90
2022-11-24T10:00:04.761Z,9.00
2022-11-24T10:02:50.286Z,9.10
2022-11-24T10:05:36.540Z,9.10
2022-11-24T10:08:34.914Z,9.10
2022-11-24T10:11:37.036Z,9.20
2022-11-24T10:14:34.825Z,9.60
2022-11-24T10:17:28.963Z,10.00
2022-11-24T10:20:29.527Z,10.20
2022-11-24T10:23:24.275Z,10.20
2022-11-24T10:26:20.442Z,10.00
2022-11-24T10:29:28.765Z,9.90
2022-11-24T10:32:35.827Z,9.90
2022-11-24T10:35:45.702Z,9.70
2022-11-24T10:38:47.000Z,9.60
2022-11-24T10:41:59.267Z,9.70
2022-11-24T10:44:45.132Z,10.00
2022-11-24T10:47:31.120Z,10.40
2022-11-24T10:50:25.892Z,10.50
2022-11-24T10:53:17.074Z,10.50
2022-11-24T10:56:05.151Z,10.30
2022-11-24T10:58:50.902Z,10.20
2022-11-24T11:01:36.233Z,10.20
2022-11-24T11:04:30.033Z,10.20
2022-11-24T11:07:21.565Z,10.30
2022-11-24T11:10:24.933Z,10.30
2022-11-24T11:13:30.970Z,10.40
2022-11-24T11:16:27.535Z,10.50
2022-11-24T11:19:50.816Z,10.50
2022-11-24T11:22:38.097Z,10.60
2022-11-24T11:25:33.050Z,10.70
2022-11-24T11:28:18.814Z,10.70
2022-11-24T11:31:17.494Z,10.80
2022-11-24T11:34:16.620Z,10.80
2022-11-24T11:37:09.780Z,10.80
2022-11-24T11:39:55.563Z,10.70
2022-11-24T11:43:13.298Z,10.60
2022-11-24T11:46:18.407Z,10.70
2022-11-24T11:49:04.310Z,10.80
2022-11-24T11:52:17.371Z,10.80
2022-11-24T11:55:28.473Z,10.70
2022-11-24T11:58:30.484Z,10.60
2022-11-24T12:01:46.221Z,10.70
2022-11-24T12:04:37.792Z,10.80
2022-11-24T12:07:47.560Z,10.90
2022-11-24T12:10:36.122Z,11.00
2022-11-24T12:13:47.534Z,11.10
2022-11-24T12:16:54.375Z,11.10
2022-11-24T12:19:40.032Z,10.90
2022-11-24T12:22:45.782Z,10.90
2022-11-24T12:25:38.512Z,10.90
2022-11-24T12:28:41.486Z,10.80
2022-11-24T12:31:37.799Z,10.90
2022-11-24T12:34:45.609Z,10.90
2022-11-24T12:37:58.937Z,10.90
2022-11-24T12:41:25.387Z,11.20
2022-11-24T12:44:32.384Z,11.30
2022-11-24T12:47:17.929Z,11.30
2022-11-24T12:50:10.488Z,11.30
2022-11-24T12:53:11.542Z,11.30
2022-11-24T12:56:09.553Z,11.30
2022-11-24T12:59:15.589Z,11.40
2022-11-24T13:02:22.977Z,11.50
2022-11-24T13:05:33.863Z,11.60
2022-11-24T13:08:19.791Z,11.70
2022-11-24T13:11:23.522Z,11.80
2022-11-24T13:14:16.322Z,11.80
2022-11-24T13:17:30.401Z,11.80
2022-11-24T13:20:21.567Z,11.80
2022-11-24T13:23:25.319Z,11.80
2022-11-24T13:26:27.131Z,11.90
2022-11-24T13:29:27.920Z,12.00
2022-11-24T13:32:14.452Z,11.90
2022-11-24T13:35:12.920Z,12.00
2022-11-24T13:37:58.885Z,12.00
2022-11-24T13:40:59.900Z,12.10
2022-11-24T13:44:15.057Z,12.20
2022-11-24T13:47:34.226Z,12.20
2022-11-24T13:50:21.571Z,12.30
2022-11-24T13:53:14.275Z,12.30
2022-11-24T13:56:11.967Z,12.20
2022-11-24T13:59:14.315Z,12.10
2022-11-24T14:01:59.656Z,12.10
2022-11-24T14:04:45.688Z,12.10
2022-11-24T14:07:32.155Z,12.00
2022-11-24T14:10:22.187Z,11.90
2022-11-24T14:13:16.763Z,11.80
2022-11-24T14:16:24.080Z,11.70
2022-11-24T14:19:11.506Z,11.70
2022-11-24T14:21:57.233Z,11.70
2022-11-24T14:24:45.548Z,11.70
2022-11-24T14:27:32.387Z,11.70
2022-11-24T14:30:21.336Z,11.60
2022-11-24T14:33:12.523Z,11.60
2022-11-24T14:35:58.018Z,11.60
2022-11-24T14:38:43.709Z,11.50
2022-11-24T14:41:29.653Z,11.40
2022-11-24T14:44:24.052Z,11.40
2022-11-24T14:47:30.139Z,11.30
2022-11-24T14:50:19.758Z,11.20
2022-11-24T14:53:13.975Z,11.10
2022-11-24T14:56:25.969Z,11.10
2022-11-24T14:59:22.912Z,11.00
2022-11-24T15:02:41.380Z,10.80
2022-11-24T15:05:54.711Z,10.60
2022-11-24T15:08:46.753Z,10.20
2022-11-24T15:11:34.277Z,10.20
2022-11-24T15:14:34.689Z,10.00
2022-11-24T15:17:24.790Z,9.90
2022-11-24T15:20:21.047Z,9.80
2022-11-24T15:23:19.025Z,9.70
2022-11-24T15:26:04.491Z,9.60
2022-11-24T15:28:50.384Z,9.60
2022-11-24T15:31:35.950Z,9.60
2022-11-24T15:34:22.252Z,9.50
2022-11-24T15:37:11.046Z,9.40
2022-11-24T15:39:56.649Z,9.30
2022-11-24T15:42:42.548Z,9.20
2022-11-24T15:45:28.306Z,9.00
2022-11-24T15:48:17.970Z,8.90
2022-11-24T15:51:11.325Z,8.80
2022-11-24T15:54:01.041Z,8.80
2022-11-24T15:56:47.413Z,8.80
2022-11-24T15:59:33.944Z,8.70
2022-11-24T16:02:21.816Z,8.60
2022-11-24T16:05:07.816Z,8.40
2022-11-24T16:07:53.240Z,8.40
2022-11-24T16:10:38.740Z,8.20
2022-11-24T16:13:24.550Z,8.10
2022-11-24T16:16:17.106Z,8.00
2022-11-24T16:19:02.873Z,7.90
2022-11-24T16:21:48.878Z,7.80
2022-11-24T16:24:34.994Z,7.70
2022-11-24T16:27:20.692Z,7.60
2022-11-24T16:30:07.459Z,7.50
2022-11-24T16:32:53.235Z,7.50
2022-11-24T16:35:38.574Z,7.40
2022-11-24T16:38:24.319Z,7.40
2022-11-24T16:41:10.559Z,7.40
2022-11-24T16:43:56.544Z,7.40
2022-11-24T16:46:43.496Z,7.30
2022-11-24T16:49:29.019Z,7.20
2022-11-24T16:52:15.698Z,7.00
2022-11-24T16:55:01.763Z,6.80
2022-11-24T16:57:48.447Z,7.10
2022-11-24T17:00:34.202Z,7.10
2022-11-24T17:03:20.273Z,7.10
2022-11-24T17:06:07.845Z,6.90
2022-11-24T17:08:55.609Z,6.80
2022-11-24T17:11:41.782Z,6.80
2022-11-24T17:14:27.777Z,6.60
2022-11-24T17:17:13.464Z,6.50
2022-11-24T17:19:58.980Z,6.40
2022-11-24T17:22:44.337Z,6.40
2022-11-24T17:25:29.852Z,6.40
2022-11-24T17:28:15.163Z,6.50
2022-11-24T17:31:12.126Z,6.30
2022-11-24T17:33:58.797Z,6.20
2022-11-24T17:36:46.724Z,6.10
2022-11-24T17:39:32.545Z,6.10
2022-11-24T17:42:18.504Z,6.00
2022-11-24T17:45:04.666Z,5.90
2022-11-24T17:47:50.210Z,5.80
2022-11-24T17:50:35.579Z,5.60
2022-11-24T17:53:21.241Z,5.60
2022-11-24T17:56:07.942Z,5.50
2022-11-24T17:58:59.445Z,5.40
2022-11-24T18:01:45.281Z,5.50
2022-11-24T18:04:30.915Z,5.40
2022-11-24T18:07:16.587Z,5.30
2022-11-24T18:10:02.073Z,5.20
2022-11-24T18:12:47.726Z,5.50
2022-11-24T18:15:34.837Z,5.50
2022-11-24T18:18:20.570Z,5.30
2022-11-24T18:21:06.773Z,5.30
2022-11-24T18:23:52.666Z,5.30
2022-11-24T18:26:39.534Z,5.20
2022-11-24T18:29:25.222Z,5.30
2022-11-24T18:32:10.624Z,5.40
2022-11-24T18:34:56.031Z,5.30
2022-11-24T18:37:44.344Z,5.20
2022-11-24T18:40:29.960Z,5.10
2022-11-24T18:43:15.772Z,5.00
2022-11-24T18:46:08.842Z,4.80
2022-11-24T18:48:55.290Z,4.80
2022-11-24T18:51:40.992Z,4.60
2022-11-24T18:54:29.754Z,4.70
2022-11-24T18:57:15.237Z,4.70
2022-11-24T19:00:00.665Z,4.70
2022-11-24T19:02:51.000Z,4.60
2022-11-24T19:05:36.518Z,4.60
2022-11-24T19:08:22.173Z,4.50
2022-11-24T19:11:07.677Z,4.40
2022-11-24T19:13:53.241Z,4.30
2022-11-24T19:16:39.547Z,4.20
2022-11-24T19:19:25.132Z,4.20
2022-11-24T19:22:10.806Z,4.30
2022-11-24T19:24:56.189Z,4.60
2022-11-24T19:27:41.543Z,4.60
2022-11-24T19:30:26.860Z,4.40
2022-11-24T19:33:12.375Z,4.30
2022-11-24T19:36:11.201Z,4.10
2022-11-24T19:38:58.066Z,4.00
2022-11-24T19:41:43.620Z,3.90
2022-11-24T19:44:29.139Z,3.90
2022-11-24T19:47:14.616Z,3.80
2022-11-24T19:50:00.094Z,3.80
2022-11-24T19:52:46.089Z,3.70
2022-11-24T19:55:32.723Z,3.80
2022-11-24T19:58:21.482Z,3.70
2022-11-24T20:01:15.447Z,3.70
2022-11-24T20:04:06.919Z,3.50
2022-11-24T20:06:52.668Z,3.50
2022-11-24T20:09:38.171Z,3.50
2022-11-24T20:12:23.497Z,3.50
2022-11-24T20:15:09.895Z,3.50
2022-11-24T20:17:55.720Z,3.50
2022-11-24T20:20:41.114Z,3.50
2022-11-24T20:23:26.687Z,3.50
2022-11-24T20:26:19.548Z,3.50
2022-11-24T20:29:06.321Z,3.50
2022-11-24T20:31:54.362Z,3.50
2022-11-24T20:34:39.729Z,3.60
2022-11-24T20:37:27.170Z,3.60
2022-11-24T20:40:13.028Z,3.50
2022-11-24T20:42:58.630Z,3.60
2022-11-24T20:45:44.378Z,3.50
2022-11-24T20:48:29.869Z,3.50
2022-11-24T20:51:36.352Z,3.40
2022-11-24T20:54:22.337Z,3.40
2022-11-24T20:57:07.573Z,3.40
2022-11-24T20:59:53.039Z,3.30
2022-11-24T21:02:38.388Z,3.20
2022-11-24T21:05:24.605Z,3.10
2022-11-24T21:08:10.042Z,3.00
2022-11-24T21:10:59.810Z,2.90
2022-11-24T21:13:46.052Z,2.80
2022-11-24T21:16:34.507Z,2.80
2022-11-24T21:19:22.642Z,2.80
2022-11-24T21:22:08.135Z,2.80
2022-11-24T21:24:53.539Z,2.80
2022-11-24T21:27:38.927Z,2.90
2022-11-24T21:30:25.506Z,2.90
2022-11-24T21:33:11.711Z,2.80
2022-11-24T21:36:02.493Z,2.90
2022-11-24T21:38:58.310Z,2.90
2022-11-24T21:41:43.771Z,2.90
2022-11-24T21:44:31.245Z,2.80
2022-11-24T21:47:16.683Z,2.80
2022-11-24T21:50:02.686Z,2.80
2022-11-24T21:52:48.342Z,2.70
2022-11-24T21:55:33.825Z,2.60
2022-11-24T21:58:19.264Z,2.60
2022-11-24T22:01:06.656Z,2.60
2022-11-24T22:03:52.064Z,2.50
2022-11-24T22:06:37.497Z,2.60
2022-11-24T22:09:23.129Z,2.50
2022-11-24T22:12:08.451Z,2.50
2022-11-24T22:14:53.921Z,2.60
2022-11-24T22:17:39.290Z,2.60
2022-11-24T22:20:24.626Z,2.50
2022-11-24T22:23:10.353Z,2.50
2022-11-24T22:25:56.209Z,2.50
2022-11-24T22:28:42.685Z,2.40
2022-11-24T22:31:31.132Z,2.30
2022-11-24T22:34:16.441Z,2.30
2022-11-24T22:37:01.921Z,2.20
2022-11-24T22:39:47.490Z,2.20
2022-11-24T22:42:32.730Z,2.20
2022-11-24T22:45:18.145Z,2.30
2022-11-24T22:48:03.419Z,2.30
2022-11-24T22:50:49.040Z,2.30
2022-11-24T22:53:34.564Z,2.30
2022-11-24T22:56:20.601Z,2.20
2022-11-24T22:59:06.090Z,2.20
2022-11-24T23:01:51.394Z,2.10
2022-11-24T23:04:37.176Z,2.10
2022-11-24T23:07:22.788Z,2.00
2022-11-24T23:10:08.430Z,2.00
2022-11-24T23:12:55.902Z,2.00
2022-11-24T23:15:41.769Z,2.00
2022-11-24T23:18:27.158Z,2.00
2022-11-24T23:21:20.872Z,2.00
2022-11-24T23:24:07.354Z,2.00
2022-11-24T23:26:53.080Z,2.00
2022-11-24T23:29:39.909Z,2.00
2022-11-24T23:32:25.583Z,2.00
2022-11-24T23:35:13.794Z,2.00
2022-11-24T23:38:07.331Z,2.00
2022-11-24T23:41:04.603Z,2.00
2022-11-24T23:43:50.794Z,2.00
2022-11-24T23:46:36.451Z,2.00
2022-11-24T23:49:21.861Z,2.00
2022-11-24T23:52:07.380Z,1.90
2022-11-24T23:54:52.982Z,1.90
2022-11-24T23:57:38.249Z,1.90
